Time;durP1;ratioP1;P1;durP2;ratioP2;P2;SDS_P1;SDS_P2;PMS_P1;PMS_P2;Temp;Humidity;BMP_temperature;BMP_pressure;BME280_temperature;BME280_humidity;BME280_pressure;Samples;Min_cycle;Max_cycle;Signal;HPM_P1;HPM_P2
2021/10/19 00:01:06;;;;;;;10.73;7.20;;;23.60;45.30;;;;;;6155167;28;81843;-73
2021/10/19 00:04:07;;;;;;;11.60;7.40;;;23.60;45.30;;;;;;6144596;28;81269;-72
2021/10/19 00:07:07;;;;;;;11.85;6.95;;;23.60;45.30;;;;;;6148812;28;83251;-72
2021/10/19 00:10:08;;;;;;;9.88;6.85;;;23.60;45.10;;;;;;6149898;28;80412;-72
2021/10/19 00:13:08;;;;;;;10.20;5.97;;;23.60;45.20;;;;;;6145784;28;80559;-72
2021/10/19 00:16:09;;;;;;;10.90;6.25;;;23.60;45.20;;;;;;6141172;28;80643;-72
2021/10/19 00:19:09;;;;;;;9.40;6.65;;;23.60;45.30;;;;;;6155307;28;80659;-72
2021/10/19 00:22:10;;;;;;;10.43;6.97;;;23.60;45.90;;;;;;6149172;28;80615;-72
2021/10/19 00:25:15;;;;;;;8.65;6.40;;;23.60;45.20;;;;;;6146670;28;81533;-72
2021/10/19 00:28:16;;;;;;;8.57;6.60;;;23.60;45.10;;;;;;6151782;28;80242;-72
2021/10/19 00:31:16;;;;;;;11.00;7.18;;;23.60;45.20;;;;;;6142773;28;80445;-72
2021/10/19 00:34:17;;;;;;;8.13;6.50;;;23.60;45.10;;;;;;6157005;28;80604;-72
2021/10/19 00:37:17;;;;;;;11.40;6.85;;;23.60;45.10;;;;;;6151536;28;81659;-72
2021/10/19 00:40:18;;;;;;;11.80;6.82;;;23.60;45.30;;;;;;6146338;28;81200;-72
2021/10/19 00:43:18;;;;;;;10.85;6.72;;;23.60;45.10;;;;;;6141965;28;85579;-68
2021/10/19 00:46:19;;;;;;;10.00;6.53;;;23.60;45.40;;;;;;6143541;28;81054;-71
2021/10/19 00:49:19;;;;;;;8.73;6.35;;;23.60;45.30;;;;;;6140643;28;81768;-73
2021/10/19 00:52:20;;;;;;;9.40;6.43;;;23.60;45.40;;;;;;6151135;28;81085;-72
2021/10/19 00:55:20;;;;;;;9.93;6.80;;;23.50;45.50;;;;;;6158496;28;81549;-72
2021/10/19 00:58:21;;;;;;;9.13;6.90;;;23.60;45.50;;;;;;6152201;28;80423;-72
2021/10/19 01:01:21;;;;;;;12.43;7.03;;;23.60;45.20;;;;;;6140572;28;80085;-72
2021/10/19 01:04:22;;;;;;;8.77;5.88;;;23.50;45.20;;;;;;6150740;28;80887;-72
2021/10/19 01:07:22;;;;;;;10.88;7.00;;;23.60;45.40;;;;;;6144867;28;82427;-72
2021/10/19 01:10:23;;;;;;;8.45;6.28;;;23.60;45.30;;;;;;6140877;28;81267;-73
2021/10/19 01:13:23;;;;;;;9.88;6.68;;;23.60;45.50;;;;;;6142766;28;80851;-72
2021/10/19 01:16:24;;;;;;;8.88;6.75;;;23.60;45.30;;;;;;6139746;28;80868;-71
2021/10/19 01:19:24;;;;;;;11.10;7.05;;;23.60;45.20;;;;;;6142837;28;82615;-72
2021/10/19 01:22:25;;;;;;;10.32;6.60;;;23.60;45.50;;;;;;6153679;28;81924;-72
2021/10/19 01:25:25;;;;;;;11.63;6.80;;;23.50;45.30;;;;;;6145925;28;81445;-71
2021/10/19 01:28:26;;;;;;;10.55;6.63;;;23.50;45.40;;;;;;6145178;28;80807;-72
2021/10/19 01:31:26;;;;;;;10.40;6.53;;;23.60;45.20;;;;;;6150222;28;80576;-72
2021/10/19 01:34:27;;;;;;;9.18;6.50;;;23.60;45.40;;;;;;6154597;28;80600;-72
2021/10/19 01:37:27;;;;;;;13.32;7.03;;;23.60;45.80;;;;;;6154962;28;80503;-72
2021/10/19 01:40:28;;;;;;;11.90;7.60;;;23.60;45.40;;;;;;6140181;28;80592;-73
2021/10/19 01:43:28;;;;;;;11.07;6.70;;;23.60;45.40;;;;;;6150365;28;80485;-72
2021/10/19 01:46:29;;;;;;;11.23;6.43;;;23.50;45.50;;;;;;6145358;28;81360;-73
2021/10/19 01:49:29;;;;;;;9.40;6.95;;;23.50;45.40;;;;;;6145014;28;81116;-72
2021/10/19 01:52:30;;;;;;;10.65;6.85;;;23.50;45.20;;;;;;6153722;28;81874;-71
2021/10/19 01:55:30;;;;;;;8.80;6.47;;;23.50;45.30;;;;;;6151918;28;80788;-74
2021/10/19 01:58:31;;;;;;;11.95;7.15;;;23.60;45.30;;;;;;6146269;28;80491;-74
2021/10/19 02:01:31;;;;;;;10.68;7.50;;;23.50;45.30;;;;;;6142285;28;80923;-75
2021/10/19 02:04:32;;;;;;;10.55;7.00;;;23.50;45.40;;;;;;6150761;28;80906;-72
2021/10/19 02:07:32;;;;;;;10.93;6.65;;;23.50;45.30;;;;;;6139903;28;80677;-75
2021/10/19 02:10:33;;;;;;;10.15;6.53;;;23.50;45.30;;;;;;6142171;28;80700;-73
2021/10/19 02:13:33;;;;;;;11.35;7.03;;;23.50;45.40;;;;;;6142813;28;80590;-73
2021/10/19 02:16:34;;;;;;;11.05;7.45;;;23.50;45.60;;;;;;6141386;28;80860;-73
2021/10/19 02:19:34;;;;;;;10.02;6.35;;;23.50;45.70;;;;;;6138065;28;80544;-74
2021/10/19 02:22:35;;;;;;;11.25;7.28;;;23.50;45.70;;;;;;6141259;28;80743;-74
2021/10/19 02:25:36;;;;;;;12.27;7.05;;;23.50;45.00;;;;;;6148471;28;80125;-74
2021/10/19 02:28:36;;;;;;;10.27;6.85;;;23.50;45.50;;;;;;6137717;28;82528;-72
2021/10/19 02:31:37;;;;;;;9.30;6.47;;;23.50;45.10;;;;;;6139146;28;82087;-73
2021/10/19 02:34:37;;;;;;;10.68;5.85;;;23.50;45.80;;;;;;6145231;28;80463;-74
2021/10/19 02:37:38;;;;;;;9.38;6.35;;;23.50;44.90;;;;;;6136846;28;80407;-73
2021/10/19 02:40:38;;;;;;;10.70;6.43;;;23.60;44.40;;;;;;6143981;28;82048;-73
2021/10/19 02:43:39;;;;;;;8.00;5.40;;;23.60;44.40;;;;;;6139775;28;80494;-74
2021/10/19 02:46:39;;;;;;;8.43;5.78;;;23.60;44.40;;;;;;6144798;28;80795;-74
2021/10/19 02:49:40;;;;;;;8.65;5.75;;;23.60;44.20;;;;;;6142872;28;80201;-73
2021/10/19 02:52:40;;;;;;;8.20;5.15;;;23.60;44.30;;;;;;6144340;28;80342;-73
2021/10/19 02:55:41;;;;;;;9.73;5.72;;;23.60;44.30;;;;;;6152714;28;80824;-74
2021/10/19 02:58:42;;;;;;;9.55;5.43;;;23.60;44.20;;;;;;6137089;28;80858;-74
2021/10/19 03:01:42;;;;;;;8.93;5.97;;;23.60;44.10;;;;;;6156583;28;81748;-74
2021/10/19 03:04:43;;;;;;;8.85;5.10;;;23.60;44.10;;;;;;6144468;28;80892;-73
2021/10/19 03:07:43;;;;;;;7.60;5.07;;;23.70;44.00;;;;;;6136763;28;81012;-73
2021/10/19 03:10:44;;;;;;;9.20;5.53;;;23.70;43.90;;;;;;6147818;28;81087;-73
2021/10/19 03:13:44;;;;;;;8.43;5.28;;;23.70;44.20;;;;;;6139329;28;83559;-71
2021/10/19 03:16:45;;;;;;;8.10;5.22;;;23.70;44.00;;;;;;6143993;28;80254;-74
2021/10/19 03:19:45;;;;;;;6.80;4.53;;;23.70;43.90;;;;;;6147014;28;81848;-75
2021/10/19 03:22:46;;;;;;;6.97;5.00;;;23.70;43.90;;;;;;6141700;28;83144;-73
2021/10/19 03:25:46;;;;;;;5.72;4.50;;;23.80;43.90;;;;;;6146880;28;80027;-74
2021/10/19 03:28:47;;;;;;;6.03;4.55;;;23.70;43.80;;;;;;6156373;28;80872;-74
2021/10/19 03:31:47;;;;;;;7.70;4.75;;;23.80;43.80;;;;;;6150633;28;81848;-74
2021/10/19 03:34:48;;;;;;;8.23;4.60;;;23.80;43.80;;;;;;6146939;28;81862;-70
2021/10/19 03:37:48;;;;;;;7.60;4.55;;;23.80;43.80;;;;;;6142679;28;80798;-68
2021/10/19 03:40:49;;;;;;;10.82;4.80;;;23.90;44.00;;;;;;6153391;28;80639;-66
2021/10/19 03:43:49;;;;;;;7.10;4.70;;;23.90;44.40;;;;;;6143923;28;80403;-72
2021/10/19 03:46:50;;;;;;;8.07;4.38;;;23.90;44.60;;;;;;6148494;28;80492;-71
2021/10/19 03:49:50;;;;;;;9.65;4.65;;;23.90;44.50;;;;;;6146118;28;81639;-75
2021/10/19 03:52:51;;;;;;;8.45;4.68;;;23.90;44.30;;;;;;6153439;28;81267;-67
2021/10/19 03:55:51;;;;;;;8.77;5.20;;;24.00;44.30;;;;;;6150931;28;80902;-65
2021/10/19 03:58:52;;;;;;;7.03;4.63;;;24.00;44.30;;;;;;6154792;28;80580;-68
2021/10/19 04:01:52;;;;;;;15.30;5.53;;;24.00;44.30;;;;;;6139696;28;80585;-68
2021/10/19 04:04:53;;;;;;;7.45;4.95;;;24.00;44.40;;;;;;6145296;28;80460;-68
2021/10/19 04:07:53;;;;;;;9.48;5.20;;;24.00;44.30;;;;;;6139342;28;87352;-66
2021/10/19 04:10:54;;;;;;;7.88;5.03;;;24.00;44.40;;;;;;6155183;28;80530;-68
2021/10/19 04:13:54;;;;;;;8.45;5.05;;;24.00;44.20;;;;;;6149907;28;81199;-69
2021/10/19 04:16:55;;;;;;;8.10;5.45;;;24.00;44.30;;;;;;6138036;28;80935;-67
2021/10/19 04:19:55;;;;;;;9.57;5.55;;;24.00;44.30;;;;;;6143069;28;80877;-68
2021/10/19 04:22:56;;;;;;;8.55;5.75;;;24.00;44.30;;;;;;6150055;28;80813;-67
2021/10/19 04:25:56;;;;;;;12.52;5.82;;;24.00;44.10;;;;;;6140242;28;80522;-69
2021/10/19 04:28:57;;;;;;;10.63;6.13;;;24.00;44.00;;;;;;6144718;28;80819;-67
2021/10/19 04:31:57;;;;;;;9.55;6.10;;;24.10;43.90;;;;;;6150500;28;81114;-68
2021/10/19 04:34:58;;;;;;;11.05;6.03;;;24.10;43.90;;;;;;6147418;28;80829;-68
2021/10/19 04:37:58;;;;;;;9.13;6.22;;;24.10;43.80;;;;;;6139252;28;86169;-68
2021/10/19 04:40:59;;;;;;;13.27;6.75;;;24.00;44.20;;;;;;6139118;28;80161;-70
2021/10/19 04:43:59;;;;;;;9.95;6.50;;;24.10;44.90;;;;;;6143223;28;80385;-69
2021/10/19 04:47:00;;;;;;;13.15;7.10;;;24.10;45.30;;;;;;6148868;28;82302;-69
2021/10/19 04:50:00;;;;;;;11.68;7.07;;;24.10;45.90;;;;;;6155477;28;81888;-68
2021/10/19 04:53:01;;;;;;;11.80;7.03;;;24.10;45.90;;;;;;6152549;28;80428;-67
2021/10/19 04:56:01;;;;;;;10.68;6.65;;;24.10;46.00;;;;;;6152527;28;81292;-67
2021/10/19 04:59:02;;;;;;;12.00;6.82;;;24.10;46.20;;;;;;6144897;28;81342;-67
2021/10/19 05:02:02;;;;;;;9.20;6.78;;;24.20;46.30;;;;;;6137374;28;80519;-72
2021/10/19 05:05:03;;;;;;;11.10;7.15;;;24.10;46.30;;;;;;6154573;28;81065;-71
2021/10/19 05:08:03;;;;;;;10.32;7.30;;;24.10;46.20;;;;;;6144068;28;80553;-69
2021/10/19 05:11:04;;;;;;;12.52;7.25;;;24.10;45.80;;;;;;6139188;28;81230;-68
2021/10/19 05:14:04;;;;;;;10.35;6.88;;;24.10;45.90;;;;;;6141100;28;80454;-69
2021/10/19 05:17:05;;;;;;;17.83;7.10;;;24.10;46.20;;;;;;6145696;28;80745;-66
2021/10/19 05:20:06;;;;;;;13.73;7.10;;;24.10;46.60;;;;;;6145073;28;81927;-66
2021/10/19 05:23:06;;;;;;;10.35;6.22;;;24.10;46.70;;;;;;6144937;28;80670;-65
2021/10/19 05:26:09;;;;;;;14.60;7.13;;;24.10;46.60;;;;;;6141456;28;80390;-66
2021/10/19 05:29:09;;;;;;;12.65;7.32;;;24.10;46.90;;;;;;6146661;28;83572;-67
2021/10/19 05:32:10;;;;;;;14.02;7.65;;;24.10;47.00;;;;;;6148271;28;80605;-65
2021/10/19 05:35:10;;;;;;;12.23;6.85;;;24.10;47.00;;;;;;6142204;28;80429;-68
2021/10/19 05:38:11;;;;;;;18.90;7.28;;;24.10;47.50;;;;;;6145733;28;80846;-67
2021/10/19 05:41:11;;;;;;;16.35;7.00;;;24.10;47.20;;;;;;6142353;28;80599;-68
2021/10/19 05:44:12;;;;;;;14.43;7.15;;;24.10;46.90;;;;;;6135827;28;80403;-68
2021/10/19 05:47:12;;;;;;;11.70;7.18;;;24.10;46.70;;;;;;6147298;28;80607;-69
2021/10/19 05:50:13;;;;;;;10.98;7.28;;;24.10;47.20;;;;;;6144126;28;80923;-68
2021/10/19 05:53:13;;;;;;;12.18;8.07;;;24.00;47.30;;;;;;6151787;28;84105;-68
2021/10/19 05:56:14;;;;;;;15.30;8.43;;;24.00;46.60;;;;;;6146675;28;80680;-67
2021/10/19 05:59:14;;;;;;;13.95;8.30;;;24.00;46.20;;;;;;6139217;28;80971;-68
2021/10/19 06:02:15;;;;;;;13.88;9.02;;;24.00;45.90;;;;;;6151730;28;80479;-67
2021/10/19 06:05:15;;;;;;;17.38;9.15;;;24.00;45.50;;;;;;6143254;28;81087;-67
2021/10/19 06:08:16;;;;;;;32.25;10.32;;;23.90;45.40;;;;;;6147604;28;80558;-68
2021/10/19 06:11:16;;;;;;;17.25;10.38;;;23.90;44.10;;;;;;6133786;28;85593;-69
2021/10/19 06:14:17;;;;;;;16.23;9.30;;;23.90;44.00;;;;;;6133392;28;83979;-69
2021/10/19 06:17:17;;;;;;;11.80;8.73;;;23.90;44.00;;;;;;6148369;28;84503;-69
2021/10/19 06:20:18;;;;;;;14.80;9.15;;;23.90;44.20;;;;;;6135331;28;80383;-68
2021/10/19 06:23:18;;;;;;;16.95;9.23;;;23.90;44.50;;;;;;6146881;28;87626;-69
2021/10/19 06:26:19;;;;;;;15.52;9.23;;;23.90;43.90;;;;;;6151557;28;80630;-69
2021/10/19 06:29:19;;;;;;;13.07;9.20;;;23.90;44.00;;;;;;6147691;28;80775;-68
2021/10/19 06:32:20;;;;;;;18.65;9.57;;;23.90;44.20;;;;;;6152011;28;80623;-68
2021/10/19 06:35:20;;;;;;;14.68;9.88;;;24.00;44.10;;;;;;6142470;28;80280;-68
2021/10/19 06:38:21;;;;;;;14.13;9.15;;;24.00;43.60;;;;;;6140234;28;81511;-68
2021/10/19 06:41:21;;;;;;;17.38;10.30;;;24.00;43.90;;;;;;6144152;28;80624;-69
2021/10/19 06:44:22;;;;;;;14.13;8.63;;;24.00;43.40;;;;;;6145620;28;83011;-68
2021/10/19 06:47:23;;;;;;;14.27;8.75;;;24.00;43.80;;;;;;6143426;28;84117;-69
2021/10/19 06:50:23;;;;;;;14.88;8.85;;;24.00;43.70;;;;;;6150035;28;87084;-69
2021/10/19 06:53:24;;;;;;;14.82;8.55;;;24.10;44.00;;;;;;6145162;28;80719;-69
2021/10/19 06:56:24;;;;;;;12.98;8.80;;;24.10;43.80;;;;;;6145445;28;80429;-69
2021/10/19 06:59:26;;;;;;;15.27;7.95;;;24.10;43.60;;;;;;6143157;28;80778;-69
2021/10/19 07:02:26;;;;;;;11.05;8.18;;;24.10;43.50;;;;;;6149196;28;81250;-69
2021/10/19 07:05:27;;;;;;;11.43;7.05;;;24.20;43.50;;;;;;6150127;28;80717;-67
2021/10/19 07:08:27;;;;;;;11.75;7.18;;;24.20;43.50;;;;;;6142005;28;81108;-67
2021/10/19 07:11:28;;;;;;;13.00;7.57;;;24.20;43.60;;;;;;6140914;28;81174;-68
2021/10/19 07:14:28;;;;;;;10.32;6.93;;;24.20;43.40;;;;;;6138796;28;81797;-68
2021/10/19 07:17:29;;;;;;;10.45;6.25;;;24.20;43.70;;;;;;6141259;28;80675;-66
2021/10/19 07:20:29;;;;;;;11.88;7.32;;;24.30;43.60;;;;;;6145182;28;80404;-68
2021/10/19 07:23:30;;;;;;;10.15;6.53;;;24.30;43.40;;;;;;6147996;28;80826;-69
2021/10/19 07:26:30;;;;;;;8.02;5.88;;;24.30;43.60;;;;;;6151806;28;81104;-68
2021/10/19 07:29:31;;;;;;;10.80;5.82;;;24.40;43.60;;;;;;6149828;28;81477;-68
2021/10/19 07:32:31;;;;;;;9.43;5.93;;;24.40;43.60;;;;;;6146246;28;81555;-68
2021/10/19 07:35:32;;;;;;;10.02;5.85;;;24.50;43.70;;;;;;6149218;28;81606;-68
2021/10/19 07:38:32;;;;;;;10.52;5.40;;;24.50;43.60;;;;;;6147432;28;80260;-68
2021/10/19 07:41:34;;;;;;;9.52;5.25;;;24.50;43.80;;;;;;6147355;28;80583;-68
2021/10/19 07:44:35;;;;;;;8.93;5.50;;;24.60;43.70;;;;;;6151668;28;80615;-68
2021/10/19 07:47:35;;;;;;;8.05;5.35;;;24.60;43.70;;;;;;6150512;28;80527;-68
2021/10/19 07:50:37;;;;;;;8.23;5.90;;;24.60;43.70;;;;;;6147226;28;83660;-67
2021/10/19 07:53:37;;;;;;;9.23;5.63;;;24.60;43.80;;;;;;6153114;28;80605;-68
2021/10/19 07:56:38;;;;;;;8.60;5.18;;;24.60;43.70;;;;;;6135830;28;82060;-68
2021/10/19 07:59:39;;;;;;;9.38;6.30;;;24.70;43.70;;;;;;6133809;28;81763;-67
2021/10/19 08:02:42;;;;;;;10.25;5.35;;;24.70;43.90;;;;;;6141846;28;80867;-68
2021/10/19 08:05:42;;;;;;;8.10;5.55;;;24.70;43.80;;;;;;6143566;28;80723;-67
2021/10/19 08:08:43;;;;;;;8.52;5.75;;;24.80;44.10;;;;;;6138161;28;80827;-68
2021/10/19 08:11:43;;;;;;;10.57;5.85;;;24.80;44.00;;;;;;6151045;28;81165;-68
2021/10/19 08:14:44;;;;;;;9.73;5.85;;;24.80;44.00;;;;;;6145503;28;81001;-67
2021/10/19 08:17:46;;;;;;;9.82;5.53;;;24.80;44.10;;;;;;6147510;28;80630;-67
2021/10/19 08:20:46;;;;;;;8.52;5.47;;;24.80;44.10;;;;;;6142711;28;80995;-67
2021/10/19 08:23:47;;;;;;;10.65;5.78;;;24.80;44.20;;;;;;6148717;28;80521;-67
2021/10/19 08:26:47;;;;;;;10.93;5.30;;;24.80;44.00;;;;;;6142787;28;80391;-67
2021/10/19 08:29:48;;;;;;;12.85;5.95;;;24.90;44.00;;;;;;6144113;28;80498;-69
2021/10/19 08:32:48;;;;;;;9.07;4.70;;;24.90;43.30;;;;;;6145499;28;83409;-67
2021/10/19 08:35:49;;;;;;;6.50;3.72;;;24.70;42.70;;;;;;6147925;28;80273;-67
2021/10/19 08:38:49;;;;;;;5.07;3.85;;;24.40;41.50;;;;;;6155876;28;80766;-67
2021/10/19 08:41:50;;;;;;;6.40;3.83;;;24.30;41.90;;;;;;6143096;28;80524;-68
2021/10/19 08:44:51;;;;;;;5.97;3.53;;;24.20;41.60;;;;;;6152859;28;80609;-67
2021/10/19 08:47:52;;;;;;;5.90;3.05;;;24.30;41.00;;;;;;6150860;28;80388;-66
2021/10/19 08:50:52;;;;;;;4.13;2.90;;;24.30;41.00;;;;;;6141614;28;81586;-66
2021/10/19 08:53:53;;;;;;;4.80;3.45;;;24.00;40.90;;;;;;6148143;28;80403;-67
2021/10/19 08:56:54;;;;;;;5.00;3.60;;;23.80;41.50;;;;;;6152029;28;82114;-67
2021/10/19 08:59:55;;;;;;;3.80;3.00;;;23.80;41.30;;;;;;6154905;28;80501;-66
2021/10/19 09:02:55;;;;;;;7.68;3.78;;;24.00;40.60;;;;;;6150079;28;80578;-67
2021/10/19 09:05:56;;;;;;;5.28;3.05;;;24.00;40.60;;;;;;6152518;28;80615;-67
2021/10/19 09:08:56;;;;;;;8.25;3.58;;;23.80;41.10;;;;;;6145332;28;80450;-67
2021/10/19 09:11:57;;;;;;;5.65;3.00;;;23.90;40.80;;;;;;6145209;28;80475;-67
2021/10/19 09:14:57;;;;;;;4.88;2.85;;;24.00;41.20;;;;;;6148025;28;80557;-66
2021/10/19 09:17:58;;;;;;;5.70;3.17;;;24.10;40.80;;;;;;6147953;28;81382;-67
2021/10/19 09:20:58;;;;;;;3.65;2.83;;;24.30;41.00;;;;;;6142336;28;81440;-66
2021/10/19 09:23:59;;;;;;;5.63;2.90;;;24.50;41.30;;;;;;6147876;28;81670;-66
2021/10/19 09:26:59;;;;;;;3.28;2.58;;;24.70;41.70;;;;;;6150219;28;81789;-66
2021/10/19 09:30:00;;;;;;;5.15;3.08;;;24.90;41.00;;;;;;6145005;28;80407;-67
2021/10/19 09:33:01;;;;;;;8.45;3.05;;;25.00;41.10;;;;;;6148816;28;81785;-67
2021/10/19 09:36:02;;;;;;;3.42;2.75;;;25.10;41.60;;;;;;6137658;28;80295;-67
2021/10/19 09:39:03;;;;;;;3.85;3.03;;;25.00;40.90;;;;;;6146855;28;80414;-67
2021/10/19 09:42:03;;;;;;;5.65;3.45;;;25.10;40.80;;;;;;6137271;28;80394;-67
2021/10/19 09:45:04;;;;;;;5.15;2.97;;;25.20;40.50;;;;;;6152555;28;81726;-67
2021/10/19 09:48:06;;;;;;;4.47;2.88;;;25.30;40.70;;;;;;6152352;28;80366;-67
2021/10/19 09:51:06;;;;;;;5.25;3.33;;;25.30;40.70;;;;;;6152067;28;80888;-67
2021/10/19 09:54:07;;;;;;;5.03;3.47;;;25.40;40.70;;;;;;6148930;28;80669;-67
2021/10/19 09:57:08;;;;;;;3.85;2.97;;;25.50;40.40;;;;;;6150804;28;81302;-66
2021/10/19 10:00:08;;;;;;;4.75;3.03;;;25.50;40.90;;;;;;6146519;28;81212;-66
2021/10/19 10:03:12;;;;;;;3.63;2.92;;;25.50;40.20;;;;;;6142711;28;80773;-67
2021/10/19 10:06:12;;;;;;;5.85;3.55;;;25.50;40.90;;;;;;6142195;28;81782;-66
2021/10/19 10:09:13;;;;;;;6.10;3.72;;;25.50;40.80;;;;;;6148841;28;80741;-67
2021/10/19 10:12:13;;;;;;;4.22;2.70;;;25.60;40.30;;;;;;6147253;28;80996;-67
2021/10/19 10:15:14;;;;;;;4.03;2.88;;;25.70;40.50;;;;;;6137471;28;81028;-68
2021/10/19 10:18:14;;;;;;;7.47;3.80;;;25.70;40.80;;;;;;6141129;28;80510;-68
2021/10/19 10:21:15;;;;;;;3.25;2.83;;;25.70;40.40;;;;;;6146404;28;80782;-68
2021/10/19 10:24:15;;;;;;;7.47;3.55;;;25.80;39.60;;;;;;6149682;28;80683;-69
2021/10/19 10:27:16;;;;;;;6.25;2.92;;;25.80;39.80;;;;;;6136471;28;80478;-68
2021/10/19 10:30:17;;;;;;;4.45;2.72;;;25.80;40.30;;;;;;6135597;28;81365;-67
2021/10/19 10:33:17;;;;;;;5.10;3.30;;;25.90;39.70;;;;;;6142330;28;80599;-67
2021/10/19 10:36:18;;;;;;;4.90;3.10;;;25.90;39.90;;;;;;6148958;28;81766;-68
2021/10/19 10:39:18;;;;;;;4.55;3.13;;;26.00;40.40;;;;;;6153396;28;80843;-67
2021/10/19 10:42:19;;;;;;;3.70;3.25;;;26.10;40.10;;;;;;6148474;28;82373;-67
2021/10/19 10:45:20;;;;;;;4.35;2.92;;;26.20;40.10;;;;;;6150779;28;80889;-68
2021/10/19 10:48:20;;;;;;;4.28;2.97;;;26.20;40.00;;;;;;6143126;28;81971;-68
2021/10/19 10:51:21;;;;;;;4.35;3.08;;;26.30;40.10;;;;;;6152295;28;80965;-67
2021/10/19 10:54:22;;;;;;;3.22;2.50;;;26.30;40.00;;;;;;6150790;28;80783;-67
2021/10/19 10:57:23;;;;;;;3.92;3.10;;;26.30;39.80;;;;;;6136828;28;81798;-67
2021/10/19 11:00:24;;;;;;;4.15;2.70;;;26.40;40.00;;;;;;6141286;28;81107;-67
2021/10/19 11:03:25;;;;;;;4.60;2.95;;;26.40;39.80;;;;;;6150006;28;80575;-67
2021/10/19 11:06:25;;;;;;;4.10;2.95;;;26.40;39.70;;;;;;6142174;28;81003;-68
2021/10/19 11:09:26;;;;;;;3.95;2.88;;;26.40;39.60;;;;;;6136248;28;80332;-68
2021/10/19 11:12:33;;;;;;;6.65;2.92;;;26.40;39.60;;;;;;6145275;28;80741;-67
2021/10/19 11:15:35;;;;;;;5.07;3.35;;;26.50;39.60;;;;;;6140632;28;80831;-68
2021/10/19 11:18:35;;;;;;;5.18;3.35;;;26.50;39.90;;;;;;6136923;28;80560;-67
2021/10/19 11:21:36;;;;;;;3.53;2.83;;;26.60;39.60;;;;;;6137790;28;81748;-67
2021/10/19 11:24:36;;;;;;;4.78;2.88;;;26.60;39.70;;;;;;6142869;28;80932;-67
2021/10/19 11:27:37;;;;;;;4.00;2.90;;;26.60;39.60;;;;;;6140254;28;81361;-66
2021/10/19 11:30:37;;;;;;;4.53;3.00;;;26.60;39.60;;;;;;6137345;28;80072;-67
2021/10/19 11:33:38;;;;;;;5.50;3.35;;;26.70;39.60;;;;;;6141843;28;81529;-67
2021/10/19 11:36:39;;;;;;;3.70;3.00;;;26.70;39.60;;;;;;6151930;28;83185;-67
2021/10/19 11:39:39;;;;;;;7.50;2.90;;;26.80;39.80;;;;;;6151645;28;80576;-67
2021/10/19 11:42:40;;;;;;;6.10;3.47;;;26.80;40.00;;;;;;6154914;28;80705;-68
2021/10/19 11:45:40;;;;;;;4.13;3.33;;;26.80;39.70;;;;;;6146796;28;81655;-69
2021/10/19 11:48:41;;;;;;;5.32;2.78;;;26.90;39.90;;;;;;6144810;28;81175;-68
2021/10/19 11:51:41;;;;;;;4.65;2.90;;;26.90;39.40;;;;;;6142702;28;80251;-68
2021/10/19 11:54:42;;;;;;;3.08;2.70;;;26.80;39.10;;;;;;6146478;28;81077;-67
2021/10/19 11:57:42;;;;;;;5.47;3.20;;;26.90;39.50;;;;;;6147088;28;81602;-68
2021/10/19 12:00:45;;;;;;;3.15;2.60;;;26.90;39.00;;;;;;6141166;28;80679;-67
2021/10/19 12:03:45;;;;;;;3.75;3.15;;;26.90;39.20;;;;;;6144354;28;80572;-67
2021/10/19 12:06:46;;;;;;;4.35;3.22;;;26.90;39.00;;;;;;6141105;28;82116;-68
2021/10/19 12:09:46;;;;;;;4.78;3.25;;;26.90;39.00;;;;;;6151335;28;80475;-68
2021/10/19 12:12:47;;;;;;;4.40;2.88;;;27.00;38.90;;;;;;6156119;28;80592;-67
2021/10/19 12:15:47;;;;;;;5.20;2.95;;;27.00;39.00;;;;;;6151955;28;80527;-68
2021/10/19 12:18:48;;;;;;;4.07;3.30;;;26.90;39.00;;;;;;6139620;28;80724;-67
2021/10/19 12:21:48;;;;;;;3.47;2.97;;;26.90;39.10;;;;;;6142297;28;81443;-65
2021/10/19 12:24:49;;;;;;;5.28;3.10;;;26.80;39.00;;;;;;6151221;28;80808;-67
2021/10/19 12:27:50;;;;;;;4.63;3.50;;;26.80;38.60;;;;;;6138374;28;80383;-67
2021/10/19 12:30:50;;;;;;;6.50;3.42;;;26.80;39.10;;;;;;6149881;28;80330;-66
2021/10/19 12:33:51;;;;;;;10.63;3.83;;;26.70;39.30;;;;;;6144343;28;79995;-66
2021/10/19 12:36:51;;;;;;;5.15;2.90;;;26.70;39.60;;;;;;6145700;28;80428;-67
2021/10/19 12:39:52;;;;;;;4.28;3.10;;;26.70;39.50;;;;;;6141393;28;81024;-67
2021/10/19 12:42:52;;;;;;;5.18;3.00;;;26.70;39.20;;;;;;6143797;28;80806;-67
2021/10/19 12:45:53;;;;;;;5.90;3.17;;;26.70;39.60;;;;;;6143420;28;80576;-66
2021/10/19 12:48:58;;;;;;;4.65;2.88;;;26.70;39.60;;;;;;6140412;28;80758;-67
2021/10/19 12:51:58;;;;;;;5.10;3.07;;;26.70;39.40;;;;;;6144554;28;80984;-66
2021/10/19 12:54:59;;;;;;;3.17;2.88;;;26.70;39.40;;;;;;6141453;28;80841;-66
2021/10/19 12:57:59;;;;;;;6.00;3.10;;;26.70;39.60;;;;;;6142513;28;80394;-66
2021/10/19 13:01:00;;;;;;;4.15;3.00;;;26.80;39.40;;;;;;6142614;28;80473;-66
2021/10/19 13:04:00;;;;;;;4.03;3.15;;;26.80;39.20;;;;;;6148100;28;82419;-66
2021/10/19 13:07:03;;;;;;;4.85;3.10;;;26.90;39.40;;;;;;6144601;28;80358;-66
2021/10/19 13:10:03;;;;;;;4.13;3.17;;;26.80;39.30;;;;;;6150481;28;80896;-66
2021/10/19 13:13:04;;;;;;;5.25;3.38;;;26.90;39.60;;;;;;6149968;28;81157;-66
2021/10/19 13:16:04;;;;;;;5.90;3.10;;;26.90;38.80;;;;;;6147902;28;80513;-67
2021/10/19 13:19:07;;;;;;;4.22;2.90;;;26.90;39.00;;;;;;6144862;28;80505;-67
2021/10/19 13:22:07;;;;;;;3.92;2.83;;;26.90;39.70;;;;;;6151281;28;81416;-68
2021/10/19 13:25:08;;;;;;;4.20;2.90;;;26.90;38.50;;;;;;6149686;28;81674;-65
2021/10/19 13:28:10;;;;;;;3.55;2.80;;;26.80;38.60;;;;;;6141961;28;80748;-64
2021/10/19 13:31:11;;;;;;;4.22;2.88;;;26.80;38.70;;;;;;6144296;28;81403;-66
2021/10/19 13:34:13;;;;;;;4.10;2.50;;;26.80;38.50;;;;;;6149681;28;81568;-64
2021/10/19 13:37:15;;;;;;;4.18;2.63;;;26.80;38.50;;;;;;6146486;28;81107;-64
2021/10/19 13:40:16;;;;;;;3.78;2.65;;;26.80;38.50;;;;;;6151575;28;81462;-64
2021/10/19 13:43:16;;;;;;;4.82;2.75;;;26.80;38.90;;;;;;6139516;28;80940;-64
2021/10/19 13:46:17;;;;;;;3.65;2.58;;;26.80;39.50;;;;;;6155128;28;81093;-64
2021/10/19 13:49:17;;;;;;;3.78;2.78;;;26.80;38.90;;;;;;6138085;28;81051;-64
2021/10/19 13:52:18;;;;;;;4.10;3.10;;;26.60;38.50;;;;;;6145463;28;80512;-63
2021/10/19 13:55:18;;;;;;;4.22;2.95;;;26.60;38.70;;;;;;6146321;28;87471;-66
2021/10/19 13:58:19;;;;;;;3.60;2.67;;;26.50;38.90;;;;;;6138389;28;80823;-65
2021/10/19 14:01:20;;;;;;;3.15;2.60;;;26.50;39.00;;;;;;6153583;28;81033;-67
2021/10/19 14:04:20;;;;;;;3.42;2.80;;;26.40;39.10;;;;;;6150610;28;80817;-65
2021/10/19 14:07:21;;;;;;;4.30;3.08;;;26.30;39.10;;;;;;6150861;28;81696;-64
2021/10/19 14:10:21;;;;;;;3.47;2.67;;;26.30;39.30;;;;;;6140454;28;81878;-64
2021/10/19 14:13:22;;;;;;;5.72;3.08;;;26.30;39.30;;;;;;6136323;28;80594;-65
2021/10/19 14:16:22;;;;;;;5.78;2.88;;;26.30;39.70;;;;;;6142861;28;82457;-67
2021/10/19 14:19:23;;;;;;;6.85;2.78;;;26.30;39.40;;;;;;6139486;28;80856;-66
2021/10/19 14:22:24;;;;;;;7.05;3.17;;;26.40;39.60;;;;;;6142988;28;80733;-67
2021/10/19 14:25:24;;;;;;;5.10;3.28;;;26.40;39.50;;;;;;6141726;28;81610;-66
2021/10/19 14:28:25;;;;;;;5.05;3.10;;;26.40;39.90;;;;;;6147960;28;80554;-66
2021/10/19 14:31:26;;;;;;;3.92;2.70;;;26.40;40.30;;;;;;6144849;28;82279;-65
2021/10/19 14:34:26;;;;;;;7.85;3.20;;;26.40;40.00;;;;;;6151738;28;80322;-65
2021/10/19 14:37:28;;;;;;;3.95;2.60;;;26.40;40.00;;;;;;6151449;28;80644;-66
2021/10/19 14:40:29;;;;;;;4.53;3.03;;;26.40;39.60;;;;;;6147841;28;80137;-66
2021/10/19 14:43:29;;;;;;;4.10;2.85;;;26.30;39.70;;;;;;6145087;28;82176;-65
2021/10/19 14:46:30;;;;;;;5.57;3.17;;;26.30;39.60;;;;;;6147279;28;80466;-65
2021/10/19 14:49:30;;;;;;;4.10;2.80;;;26.30;39.40;;;;;;6143644;28;80366;-65
2021/10/19 14:52:31;;;;;;;4.45;2.97;;;26.20;39.00;;;;;;6149540;28;80347;-65
2021/10/19 14:55:31;;;;;;;4.00;2.97;;;26.10;38.90;;;;;;6149711;28;81116;-64
2021/10/19 14:58:32;;;;;;;4.30;2.90;;;26.10;39.20;;;;;;6148792;28;80743;-64
2021/10/19 15:01:32;;;;;;;5.07;2.80;;;26.00;39.40;;;;;;6141962;28;82049;-64
2021/10/19 15:04:33;;;;;;;6.75;3.40;;;25.90;39.50;;;;;;6145896;28;81151;-64
2021/10/19 15:07:34;;;;;;;7.80;3.92;;;25.90;39.60;;;;;;6149107;28;81104;-65
2021/10/19 15:10:34;;;;;;;6.28;3.67;;;25.80;39.60;;;;;;6151218;28;81767;-64
2021/10/19 15:13:35;;;;;;;7.00;4.00;;;25.80;39.90;;;;;;6158275;28;81043;-64
2021/10/19 15:16:35;;;;;;;5.55;3.83;;;25.80;40.10;;;;;;6147253;28;81940;-64
2021/10/19 15:19:36;;;;;;;12.02;3.85;;;25.70;40.00;;;;;;6148873;28;81186;-64
2021/10/19 15:22:36;;;;;;;11.88;4.40;;;25.70;40.00;;;;;;6146970;28;81484;-64
2021/10/19 15:25:37;;;;;;;6.40;4.25;;;25.70;40.10;;;;;;6144321;28;81107;-64
2021/10/19 15:28:37;;;;;;;6.75;3.67;;;25.60;39.60;;;;;;6150448;28;81846;-63
2021/10/19 15:31:40;;;;;;;7.35;3.50;;;25.60;40.20;;;;;;6151973;28;80955;-63
2021/10/19 15:34:40;;;;;;;7.07;4.20;;;25.60;39.90;;;;;;6150749;28;82036;-64